Canton, Kentucky
Current Conditions -  °F | °C
As of 7:16 PM on Sunday 23 Nov 2014 (Local Time) from KHOP Reporting Station
Moderate Rain Moderate Rain  
Wind Chill: 59°   Ceiling: 2800
Heat Index: 59°   Visibility: 5mi
Dew Point: 59°   Wind: 7mph
Humidity: 100%   Direction: 190°S
Pressure: 29.33"   Gusts: 17mph
Location:  36.8031°N, 87.8159°W
Report Text: KHOP 240116Z AUTO 19006G15KT 5SM R23/5000FT RA BR SCT003 SCT012 BKN028 BKN034 OVC055 15/15 A2933 RMK AO2 RAB0111DZE0111 CIG 028V033 BKN028 V SCT
Loading
Personal Weather Stations






























Interactive Weather Map New forecast layout! Learn more

10-Day Weather Forecast

Advertisements
Track Severe Weather on mobile